Terminal Aerodrome Forecast
Issued by NWS Louisville, KY

Home | Current Version | Previous Version | Text Only | Print | Product List | Glossary On
Versions: 1 2 3 4 5 6 7 8 9 10 11 12 13 14 15 16 17 18 19
000
FTUS43 KLMK 221700
TAFSDF
TAF
KSDF 221720Z 2218/2324 01004KT P6SM OVC035
      TEMPO 2218/2221 4SM HZ BKN025
     FM230300 03005KT 6SM HZ SCT025 BKN200
     FM231800 05003KT P6SM BKN050=

USA.gov is the U.S. government's official web portal to all federal, state and local government web resources and services.